עמוד ראשי
METAR-TAF:

METAR-TAF

שדות תעופה :

RAF

Spadeadam, אנגליה

קו רוחב: 55-03N, קו אורך: 002-33W, גובה: 325מטר

תצפית מזג אוויר נוכחית

הדו"ח נערך לפני 30דקות, בשעה 08:50 UTC
רוח 11קשר מכיוון מערב/דרום-מערב
טמפרטורת 12 צלסיוס
לחות 88%
לחץ 1008 hPa
ראות: 6000מטר
גשם קל,

METAR: EGOM 270850Z AUTO 24011KT 6000 -RA BKN008/// SCT024/// BKN072/// 12/10 Q1008

זמן: 10:20 (09:20 UTC)


TAF: חסר

תצפיות ותחזיות מזג אוויר לגבי יותר מ- 4,000 שדות תעופה ברחבי העולם. דוחות METAR ו- TAF.

התחנות הזמינות מסומנות בנקודות צהובות ואדומות על גבי המפה.

העבר את העכבר לנקודה הצבעונית על מנת לראות את שם התחנה.

לאחר מכן, לחץ כדי לראות את תוכן ואת תחזיות מזג האוויר.

כדי לשנות את המפה: לחץ על הכפתורים הירוקים עם הפלוס השחור כדי להתקרב; על הכפתור הירוק עם המקף כדי להתרחק; או בחיצים הירוקים למפות סמוכות.


METAR-TAF: